Time;durP1;ratioP1;P1;durP2;ratioP2;P2;SDS_P1;SDS_P2;PMS_P1;PMS_P2;Temp;Humidity;BMP_temperature;BMP_pressure;BME280_temperature;BME280_humidity;BME280_pressure;Samples;Min_cycle;Max_cycle;Signal;HPM_P1;HPM_P2
2024/02/10 00:01:09;;;;;;;7.68;4.40;;;9.90;99.90;;;;;;5136445;27;20494;-68
2024/02/10 00:03:35;;;;;;;8.07;4.75;;;9.90;99.90;;;;;;5138999;27;20782;-68
2024/02/10 00:06:01;;;;;;;9.27;4.50;;;9.90;99.90;;;;;;5099356;27;20067;-68
2024/02/10 00:08:27;;;;;;;12.40;4.43;;;9.90;99.90;;;;;;5119950;27;20054;-68
2024/02/10 00:10:56;;;;;;;10.25;4.97;;;9.90;99.90;;;;;;5140513;27;20107;-68
2024/02/10 00:13:22;;;;;;;9.63;4.82;;;9.90;99.90;;;;;;5137809;27;20125;-68
2024/02/10 00:15:50;;;;;;;8.02;4.60;;;9.90;99.90;;;;;;5132480;27;20122;-67
2024/02/10 00:18:18;;;;;;;11.27;4.82;;;9.90;99.90;;;;;;5137527;27;20054;-68
2024/02/10 00:20:45;;;;;;;8.65;5.10;;;9.90;99.90;;;;;;5135242;27;20099;-68
2024/02/10 00:23:11;;;;;;;12.55;5.22;;;9.80;99.90;;;;;;5117360;27;20126;-68
2024/02/10 00:25:38;;;;;;;8.85;4.35;;;9.90;99.90;;;;;;5135840;27;20038;-68
2024/02/10 00:28:06;;;;;;;14.57;5.03;;;9.90;99.90;;;;;;5137104;27;20051;-68
2024/02/10 00:30:32;;;;;;;8.57;5.13;;;9.80;99.90;;;;;;5121752;27;20043;-68
2024/02/10 00:32:59;;;;;;;8.35;5.00;;;9.80;99.90;;;;;;5135661;27;20062;-68
2024/02/10 00:35:25;;;;;;;9.30;5.03;;;9.80;99.90;;;;;;5117512;27;20049;-68
2024/02/10 00:37:56;;;;;;;9.88;5.03;;;9.60;99.90;;;;;;5138285;27;20578;-68
2024/02/10 00:40:22;;;;;;;8.32;4.75;;;9.90;99.90;;;;;;5134162;27;20511;-68
2024/02/10 00:42:51;;;;;;;11.13;4.75;;;9.80;99.90;;;;;;5120795;27;20042;-68
2024/02/10 00:45:17;;;;;;;11.95;4.78;;;9.90;99.90;;;;;;5130659;27;20521;-68
2024/02/10 00:47:44;;;;;;;15.77;5.43;;;9.90;99.90;;;;;;5130888;27;20086;-68
2024/02/10 00:50:15;;;;;;;10.48;5.03;;;9.90;99.90;;;;;;5118187;27;20042;-68
2024/02/10 00:52:46;;;;;;;10.23;4.88;;;10.00;99.90;;;;;;5132545;27;20038;-68
2024/02/10 00:55:12;;;;;;;12.88;5.07;;;9.90;99.90;;;;;;5116382;27;20030;-68
2024/02/10 00:57:40;;;;;;;9.45;5.03;;;9.90;99.90;;;;;;5117105;27;20053;-68
2024/02/10 01:00:11;;;;;;;11.13;4.93;;;10.00;99.90;;;;;;5138888;27;20035;-68
2024/02/10 01:02:37;;;;;;;8.32;4.50;;;9.90;99.90;;;;;;5118555;27;20045;-68
2024/02/10 01:05:05;;;;;;;7.32;4.53;;;10.00;99.90;;;;;;5121880;27;20050;-68
2024/02/10 01:07:31;;;;;;;13.93;5.18;;;10.00;99.90;;;;;;5135630;27;20066;-68
2024/02/10 01:09:57;;;;;;;9.63;4.95;;;10.00;99.90;;;;;;5134561;27;20035;-68
2024/02/10 01:12:22;;;;;;;11.15;4.82;;;10.00;99.90;;;;;;5120356;27;20718;-68
2024/02/10 01:14:50;;;;;;;8.20;4.80;;;10.00;99.90;;;;;;5140123;27;20467;-66
2024/02/10 01:17:16;;;;;;;7.13;4.47;;;10.00;99.90;;;;;;5102278;27;20042;-68
2024/02/10 01:19:49;;;;;;;15.75;5.05;;;10.00;99.90;;;;;;5117803;27;20039;-68
2024/02/10 01:22:17;;;;;;;9.30;5.68;;;10.00;99.90;;;;;;5135024;27;20130;-68
2024/02/10 01:24:45;;;;;;;9.32;5.82;;;10.10;99.90;;;;;;5137491;27;20035;-68
2024/02/10 01:27:14;;;;;;;11.13;5.30;;;10.10;99.90;;;;;;5139474;27;20090;-68
2024/02/10 01:29:40;;;;;;;9.75;5.75;;;10.10;99.90;;;;;;5116209;27;20107;-68
2024/02/10 01:32:09;;;;;;;10.80;5.43;;;10.10;99.90;;;;;;5139477;27;20042;-68
2024/02/10 01:34:34;;;;;;;9.07;4.97;;;10.10;99.90;;;;;;5117456;27;20042;-68
2024/02/10 01:37:00;;;;;;;13.05;5.47;;;10.10;99.90;;;;;;5122144;27;20657;-68
2024/02/10 01:39:26;;;;;;;12.95;5.18;;;10.10;99.90;;;;;;5135876;27;20047;-67
2024/02/10 01:41:55;;;;;;;10.07;5.47;;;10.10;99.90;;;;;;5130289;27;20043;-68
2024/02/10 01:44:21;;;;;;;11.40;5.70;;;10.10;99.90;;;;;;5115372;27;20038;-68
2024/02/10 01:46:47;;;;;;;9.85;5.30;;;10.10;99.90;;;;;;5132031;27;20030;-68
2024/02/10 01:49:15;;;;;;;9.55;5.50;;;10.10;99.90;;;;;;5142366;27;20514;-68
2024/02/10 01:51:41;;;;;;;10.70;4.93;;;10.10;99.90;;;;;;5137503;27;20043;-68
2024/02/10 01:54:09;;;;;;;12.82;5.30;;;10.10;99.90;;;;;;5123756;27;20755;-68
2024/02/10 01:56:39;;;;;;;9.25;5.20;;;10.10;99.90;;;;;;5136672;27;20047;-68
2024/02/10 01:59:09;;;;;;;13.40;5.45;;;10.00;99.90;;;;;;5121270;27;20047;-68
2024/02/10 02:01:36;;;;;;;9.35;5.25;;;10.10;99.90;;;;;;5134856;27;20040;-68
2024/02/10 02:04:05;;;;;;;12.63;5.22;;;10.00;99.90;;;;;;5114228;27;20482;-68
2024/02/10 02:06:33;;;;;;;11.55;5.15;;;10.10;99.90;;;;;;5116751;27;20097;-68
2024/02/10 02:09:03;;;;;;;11.98;5.50;;;10.10;99.90;;;;;;5120753;27;20105;-68
2024/02/10 02:11:29;;;;;;;11.80;5.68;;;10.00;99.90;;;;;;5135036;27;20038;-68
2024/02/10 02:13:58;;;;;;;10.73;5.22;;;10.00;99.90;;;;;;5137445;27;20445;-68
2024/02/10 02:16:28;;;;;;;8.73;5.40;;;10.10;99.90;;;;;;5134950;27;20043;-68
2024/02/10 02:18:57;;;;;;;14.75;5.93;;;10.00;99.90;;;;;;5134977;27;20070;-68
2024/02/10 02:21:24;;;;;;;10.70;6.03;;;10.00;99.90;;;;;;5136386;27;20498;-68
2024/02/10 02:23:51;;;;;;;12.48;6.03;;;10.00;99.90;;;;;;5134391;27;20035;-68
2024/02/10 02:26:18;;;;;;;11.00;5.72;;;10.00;99.90;;;;;;5139234;27;20107;-68
2024/02/10 02:28:44;;;;;;;12.40;5.95;;;10.10;99.90;;;;;;5143639;27;20053;-68
2024/02/10 02:31:10;;;;;;;9.30;5.30;;;10.00;99.90;;;;;;5123152;27;20501;-68
2024/02/10 02:33:38;;;;;;;18.30;6.00;;;10.10;99.90;;;;;;5132508;27;20058;-68
2024/02/10 02:36:04;;;;;;;12.70;5.70;;;10.00;99.90;;;;;;5139283;27;20043;-68
2024/02/10 02:38:30;;;;;;;13.48;6.63;;;10.10;99.90;;;;;;5122562;27;20054;-67
2024/02/10 02:40:55;;;;;;;12.50;6.18;;;10.10;99.90;;;;;;5138363;27;20764;-68
2024/02/10 02:43:21;;;;;;;15.02;6.30;;;10.10;99.90;;;;;;5136591;27;20143;-67
2024/02/10 02:45:48;;;;;;;16.27;7.20;;;10.00;99.90;;;;;;5139661;27;20034;-68
2024/02/10 02:48:14;;;;;;;14.70;6.45;;;10.00;99.90;;;;;;5132379;27;20547;-68
2024/02/10 02:50:46;;;;;;;12.60;7.10;;;10.00;99.90;;;;;;5138323;27;20540;-67
2024/02/10 02:53:12;;;;;;;22.15;7.55;;;10.00;99.90;;;;;;5141559;27;20437;-68
2024/02/10 02:55:38;;;;;;;10.48;6.47;;;9.90;99.90;;;;;;5118124;27;20053;-68
2024/02/10 02:58:09;;;;;;;12.07;6.95;;;9.90;99.90;;;;;;5138477;27;20039;-68
2024/02/10 03:00:38;;;;;;;10.57;7.03;;;9.80;99.90;;;;;;5137016;27;20107;-68
2024/02/10 03:03:04;;;;;;;13.32;7.55;;;9.80;99.90;;;;;;5114578;27;20117;-68
2024/02/10 03:05:31;;;;;;;14.52;7.70;;;9.80;99.90;;;;;;5117947;27;20031;-68
2024/02/10 03:07:57;;;;;;;16.83;8.38;;;9.80;99.90;;;;;;5137246;27;20070;-68
2024/02/10 03:10:23;;;;;;;11.43;7.13;;;9.80;99.90;;;;;;5118710;27;20079;-68
2024/02/10 03:12:49;;;;;;;14.52;7.65;;;9.80;99.90;;;;;;5137485;27;20411;-68
2024/02/10 03:15:15;;;;;;;14.40;8.27;;;9.70;99.90;;;;;;5138889;27;20055;-68
2024/02/10 03:17:46;;;;;;;16.60;8.15;;;9.70;99.90;;;;;;5139103;27;20034;-67
2024/02/10 03:20:12;;;;;;;14.93;8.38;;;9.70;99.90;;;;;;5138651;27;20031;-68
2024/02/10 03:22:39;;;;;;;17.90;8.35;;;9.70;99.90;;;;;;5119951;27;20034;-68
2024/02/10 03:25:05;;;;;;;16.90;8.80;;;9.60;99.90;;;;;;5132540;27;20510;-67
2024/02/10 03:27:30;;;;;;;15.93;8.75;;;9.60;99.90;;;;;;5131844;27;20031;-68
2024/02/10 03:29:56;;;;;;;15.25;8.27;;;9.60;99.90;;;;;;5137118;27;20037;-68
2024/02/10 03:32:22;;;;;;;15.98;9.05;;;9.60;99.90;;;;;;5100678;27;20531;-68
2024/02/10 03:34:48;;;;;;;16.35;8.80;;;9.60;99.90;;;;;;5138735;27;20031;-68
2024/02/10 03:37:15;;;;;;;21.45;9.48;;;9.60;99.90;;;;;;5138924;27;20101;-67
2024/02/10 03:39:41;;;;;;;15.85;9.80;;;9.60;99.90;;;;;;5134687;27;20046;-68
2024/02/10 03:42:07;;;;;;;14.77;10.02;;;9.60;99.90;;;;;;5138624;27;20031;-67
2024/02/10 03:44:34;;;;;;;13.90;8.73;;;9.50;99.90;;;;;;5114029;27;20810;-67
2024/02/10 03:47:01;;;;;;;13.43;8.70;;;9.60;99.90;;;;;;5134123;27;20047;-68
2024/02/10 03:49:28;;;;;;;16.98;9.40;;;9.60;99.90;;;;;;5135087;27;20573;-68
2024/02/10 03:51:54;;;;;;;17.42;10.00;;;9.50;99.90;;;;;;5136781;27;20570;-68
2024/02/10 03:54:20;;;;;;;18.90;9.45;;;9.50;99.90;;;;;;5116678;27;20048;-68
2024/02/10 03:56:49;;;;;;;22.65;10.35;;;9.50;99.90;;;;;;5121392;27;20041;-67
2024/02/10 03:59:16;;;;;;;16.65;9.85;;;9.50;99.90;;;;;;5120815;27;20050;-68
2024/02/10 04:01:45;;;;;;;16.05;10.18;;;9.50;99.90;;;;;;5135889;27;20050;-68
2024/02/10 04:04:13;;;;;;;15.75;9.20;;;9.50;99.90;;;;;;5136165;27;20051;-68
2024/02/10 04:06:40;;;;;;;15.68;10.23;;;9.50;99.90;;;;;;5140132;27;20043;-67
2024/02/10 04:09:08;;;;;;;22.63;10.45;;;9.50;99.90;;;;;;5137849;27;20053;-67
2024/02/10 04:11:34;;;;;;;22.92;11.63;;;9.50;99.90;;;;;;5139591;27;20565;-68
2024/02/10 04:14:00;;;;;;;24.85;11.45;;;9.50;99.90;;;;;;5135663;27;20111;-68
2024/02/10 04:16:26;;;;;;;20.10;11.18;;;9.60;99.90;;;;;;5137473;27;20359;-68
2024/02/10 04:18:59;;;;;;;20.15;11.15;;;9.60;99.90;;;;;;5141658;27;20042;-68
2024/02/10 04:21:26;;;;;;;17.88;10.77;;;9.50;99.90;;;;;;5134693;27;20100;-68
2024/02/10 04:23:51;;;;;;;17.10;10.65;;;9.60;99.90;;;;;;5119436;27;20289;-68
2024/02/10 04:26:18;;;;;;;18.90;10.73;;;9.60;99.90;;;;;;5137464;27;20039;-67
2024/02/10 04:28:44;;;;;;;21.60;10.88;;;9.60;99.90;;;;;;5117257;27;20050;-67
2024/02/10 04:31:10;;;;;;;15.90;10.35;;;9.50;99.90;;;;;;5135748;27;20070;-68
2024/02/10 04:33:36;;;;;;;15.70;10.43;;;9.50;99.90;;;;;;5117812;27;20039;-67
2024/02/10 04:36:02;;;;;;;19.17;10.73;;;9.50;99.90;;;;;;5137418;27;20031;-68
2024/02/10 04:38:28;;;;;;;21.33;11.27;;;9.50;99.90;;;;;;5138664;27;20121;-67
2024/02/10 04:40:54;;;;;;;16.58;10.25;;;9.50;99.90;;;;;;5119129;27;20103;-67
2024/02/10 04:43:19;;;;;;;17.25;10.43;;;9.50;99.90;;;;;;5121398;27;20050;-68
2024/02/10 04:45:48;;;;;;;17.58;10.60;;;9.50;99.90;;;;;;5137868;27;20118;-68
2024/02/10 04:48:17;;;;;;;14.73;9.75;;;9.50;99.90;;;;;;5140330;27;20100;-67
2024/02/10 04:50:43;;;;;;;;;;;9.60;99.90;;;;;;5120150;27;20047;-68
2024/02/10 04:53:09;;;;;;;17.40;10.90;;;9.40;99.90;;;;;;5136395;27;19926;-68
2024/02/10 04:55:36;;;;;;;18.98;11.27;;;9.60;99.90;;;;;;5117467;27;20522;-68
2024/02/10 04:58:03;;;;;;;19.58;10.75;;;9.60;99.90;;;;;;5139411;27;20038;-68
2024/02/10 05:00:29;;;;;;;14.80;10.00;;;9.50;99.90;;;;;;5133919;27;20031;-68
2024/02/10 05:02:54;;;;;;;17.38;10.27;;;9.50;99.90;;;;;;5141705;27;20513;-68
2024/02/10 05:05:20;;;;;;;15.30;10.02;;;9.60;99.90;;;;;;5132655;27;20069;-68
2024/02/10 05:07:48;;;;;;;15.52;10.85;;;9.60;99.90;;;;;;5119155;27;20764;-68
2024/02/10 05:10:15;;;;;;;16.08;10.10;;;9.50;99.90;;;;;;5137790;27;20061;-68
2024/02/10 05:12:48;;;;;;;18.00;10.30;;;9.40;99.90;;;;;;5134791;27;20138;-68
2024/02/10 05:15:23;;;;;;;13.48;9.57;;;9.50;99.90;;;;;;5137721;27;20039;-68
2024/02/10 05:17:52;;;;;;;14.35;10.32;;;9.40;99.90;;;;;;5132986;27;20050;-67
2024/02/10 05:20:23;;;;;;;15.50;10.88;;;9.50;99.90;;;;;;5116717;27;20031;-67
2024/02/10 05:22:53;;;;;;;18.92;10.55;;;9.50;99.90;;;;;;5133660;27;20451;-68
2024/02/10 05:25:20;;;;;;;15.77;10.38;;;9.50;99.90;;;;;;5138805;27;20524;-67
2024/02/10 05:27:50;;;;;;;19.90;10.25;;;9.50;99.90;;;;;;5121485;27;20058;-68
2024/02/10 05:30:24;;;;;;;16.90;10.27;;;9.40;99.90;;;;;;5140902;27;20502;-68
2024/02/10 05:32:51;;;;;;;18.27;9.50;;;9.50;99.90;;;;;;5136385;27;20066;-68
2024/02/10 05:35:18;;;;;;;15.80;10.07;;;9.50;99.90;;;;;;5121191;27;20037;-67
2024/02/10 05:37:48;;;;;;;15.80;10.27;;;9.50;99.90;;;;;;5138529;27;20035;-68
2024/02/10 05:40:15;;;;;;;15.98;10.75;;;9.50;99.90;;;;;;5124011;27;20126;-67
2024/02/10 05:42:43;;;;;;;18.33;10.25;;;9.60;99.90;;;;;;5138926;27;20054;-67
2024/02/10 05:45:10;;;;;;;14.07;11.15;;;9.50;99.90;;;;;;5098340;27;20562;-68
2024/02/10 05:47:36;;;;;;;17.88;10.15;;;9.60;99.90;;;;;;5122032;27;20046;-68
2024/02/10 05:50:12;;;;;;;16.13;10.18;;;9.50;99.90;;;;;;5115908;27;20035;-68
2024/02/10 05:52:41;;;;;;;15.73;9.68;;;9.40;99.90;;;;;;5146315;27;20177;-67
2024/02/10 05:55:09;;;;;;;17.83;9.95;;;9.40;99.90;;;;;;5141999;27;20043;-68
2024/02/10 05:57:36;;;;;;;15.05;9.85;;;9.50;99.90;;;;;;5138958;27;20429;-68
2024/02/10 06:00:04;;;;;;;15.55;10.07;;;9.50;99.90;;;;;;5141244;27;20066;-68
2024/02/10 06:02:30;;;;;;;16.80;9.43;;;9.40;99.90;;;;;;5125395;27;20031;-68
2024/02/10 06:04:56;;;;;;;14.90;10.68;;;9.50;99.90;;;;;;5139307;27;20756;-68
2024/02/10 06:07:25;;;;;;;17.02;10.57;;;9.50;99.90;;;;;;5105132;27;20110;-67
2024/02/10 06:09:51;;;;;;;14.82;9.95;;;9.50;99.90;;;;;;5139119;27;20049;-68
2024/02/10 06:12:17;;;;;;;18.45;10.60;;;9.50;99.90;;;;;;5123000;27;20038;-68
2024/02/10 06:14:43;;;;;;;16.92;10.32;;;9.50;99.90;;;;;;5097273;27;20129;-68
2024/02/10 06:17:11;;;;;;;14.75;10.05;;;9.40;99.90;;;;;;5107768;27;20035;-68
2024/02/10 06:19:38;;;;;;;15.87;10.83;;;9.40;99.90;;;;;;5142311;27;20364;-68
2024/02/10 06:22:06;;;;;;;12.60;10.18;;;9.40;99.90;;;;;;5140987;27;20051;-68
2024/02/10 06:24:35;;;;;;;18.87;11.10;;;9.50;99.90;;;;;;5145270;27;20352;-68
2024/02/10 06:27:01;;;;;;;;;;;9.50;99.90;;;;;;5139591;27;20035;-68
2024/02/10 06:29:26;;;;;;;20.17;10.95;;;9.60;99.90;;;;;;5134677;27;19919;-68
2024/02/10 06:31:52;;;;;;;17.50;11.18;;;9.50;99.90;;;;;;5118323;27;20042;-67
2024/02/10 06:34:18;;;;;;;19.80;10.77;;;9.50;99.90;;;;;;5137927;27;20091;-67
2024/02/10 06:36:47;;;;;;;15.80;10.27;;;9.70;99.90;;;;;;5136174;27;20041;-67
2024/02/10 06:39:13;;;;;;;20.75;11.52;;;9.70;99.90;;;;;;5123562;27;20491;-67
2024/02/10 06:41:43;;;;;;;15.93;11.38;;;9.70;99.90;;;;;;5137692;27;20039;-68
2024/02/10 06:44:09;;;;;;;17.17;11.77;;;9.60;99.90;;;;;;5140717;27;20524;-68
2024/02/10 06:46:35;;;;;;;18.60;11.30;;;9.70;99.90;;;;;;5144231;27;20038;-68
2024/02/10 06:49:01;;;;;;;17.40;11.65;;;9.60;99.90;;;;;;5143537;27;20049;-68
2024/02/10 06:51:28;;;;;;;16.13;12.00;;;9.90;99.90;;;;;;5123521;27;20077;-67
2024/02/10 06:53:58;;;;;;;16.35;11.05;;;9.80;99.90;;;;;;5143867;27;20065;-68
2024/02/10 06:56:24;;;;;;;18.75;11.98;;;9.80;99.90;;;;;;5142409;27;20043;-68
2024/02/10 06:58:50;;;;;;;17.08;11.43;;;9.70;99.90;;;;;;5143117;27;20068;-68
2024/02/10 07:01:17;;;;;;;16.30;11.93;;;9.90;99.90;;;;;;5124180;27;20062;-67
2024/02/10 07:03:45;;;;;;;20.25;12.63;;;9.70;99.90;;;;;;5143812;27;20042;-68
2024/02/10 07:06:17;;;;;;;20.52;12.05;;;9.80;99.90;;;;;;5143263;27;20042;-68
2024/02/10 07:08:44;;;;;;;17.20;11.05;;;9.90;99.90;;;;;;5142601;27;20054;-68
2024/02/10 07:11:12;;;;;;;20.58;12.32;;;9.90;99.90;;;;;;5143622;27;20505;-68
2024/02/10 07:13:38;;;;;;;16.70;12.38;;;9.80;99.90;;;;;;5123571;27;20042;-68
2024/02/10 07:16:06;;;;;;;18.35;12.90;;;9.90;99.90;;;;;;5122807;27;20125;-68
2024/02/10 07:18:32;;;;;;;18.30;12.20;;;9.90;99.90;;;;;;5142423;27;20085;-67
2024/02/10 07:20:59;;;;;;;18.40;13.02;;;9.90;99.90;;;;;;5141328;27;20046;-68
2024/02/10 07:23:26;;;;;;;19.13;12.80;;;10.00;99.90;;;;;;5122906;27;20087;-68
2024/02/10 07:25:52;;;;;;;19.05;13.23;;;10.00;99.90;;;;;;5142286;27;20065;-67
2024/02/10 07:28:21;;;;;;;18.13;12.43;;;9.90;99.90;;;;;;5142897;27;20039;-68
2024/02/10 07:30:51;;;;;;;19.20;12.82;;;9.90;99.90;;;;;;5142671;27;20050;-68
2024/02/10 07:33:18;;;;;;;19.02;13.10;;;9.90;99.90;;;;;;5140952;27;20030;-68
2024/02/10 07:35:49;;;;;;;19.13;13.23;;;10.10;99.90;;;;;;5142310;27;20018;-68
2024/02/10 07:38:21;;;;;;;20.15;13.63;;;10.00;99.90;;;;;;5121650;27;20325;-69
2024/02/10 07:40:47;;;;;;;21.45;13.73;;;10.00;99.90;;;;;;5123616;27;20121;-68
2024/02/10 07:43:15;;;;;;;20.50;13.63;;;10.00;99.90;;;;;;5124492;27;20038;-68
2024/02/10 07:45:42;;;;;;;19.15;13.25;;;10.10;99.90;;;;;;5124712;27;20050;-68
2024/02/10 07:48:08;;;;;;;19.73;13.13;;;10.10;99.90;;;;;;5142117;27;20680;-68
2024/02/10 07:50:36;;;;;;;18.15;13.95;;;10.00;99.90;;;;;;5104286;27;20047;-68
2024/02/10 07:53:03;;;;;;;25.05;14.43;;;10.10;99.90;;;;;;5139930;27;20038;-68
2024/02/10 07:55:29;;;;;;;21.50;13.85;;;10.10;99.90;;;;;;5141410;27;20046;-68
2024/02/10 07:57:56;;;;;;;19.13;13.73;;;10.20;99.90;;;;;;5139912;27;20043;-68
2024/02/10 08:00:22;;;;;;;22.13;14.88;;;10.10;99.90;;;;;;5121912;27;20085;-68
2024/02/10 08:02:48;;;;;;;19.40;14.05;;;10.10;99.90;;;;;;5141572;27;20037;-65
2024/02/10 08:05:20;;;;;;;23.45;14.13;;;10.30;99.90;;;;;;5143118;27;20030;-64
2024/02/10 08:07:45;;;;;;;26.85;14.35;;;10.40;99.90;;;;;;5121860;27;20089;-65
2024/02/10 08:10:11;;;;;;;18.38;13.40;;;10.40;99.90;;;;;;5141923;27;20035;-64
2024/02/10 08:12:37;;;;;;;19.73;14.35;;;10.30;99.90;;;;;;5139356;27;20048;-65
2024/02/10 08:15:03;;;;;;;27.02;14.55;;;10.50;99.90;;;;;;5142000;27;20137;-65
2024/02/10 08:17:30;;;;;;;21.27;14.38;;;10.50;99.90;;;;;;5139770;27;20049;-64
2024/02/10 08:19:57;;;;;;;20.83;14.50;;;10.50;99.90;;;;;;5140154;27;20049;-65
2024/02/10 08:22:24;;;;;;;18.63;13.50;;;10.60;99.90;;;;;;5140171;27;20624;-65
2024/02/10 08:24:51;;;;;;;23.15;14.38;;;10.60;99.90;;;;;;5138993;27;20551;-64
2024/02/10 08:27:18;;;;;;;20.42;14.20;;;10.70;99.90;;;;;;5140538;27;20113;-65
2024/02/10 08:29:47;;;;;;;18.92;14.00;;;10.80;99.90;;;;;;5140350;27;20046;-65
2024/02/10 08:32:13;;;;;;;19.00;13.85;;;10.80;99.90;;;;;;5138646;27;20510;-65
2024/02/10 08:34:42;;;;;;;24.50;14.32;;;10.90;99.90;;;;;;5140478;27;20428;-65
2024/02/10 08:37:14;;;;;;;16.50;13.50;;;11.00;99.90;;;;;;5140009;27;20046;-65
2024/02/10 08:39:45;;;;;;;18.60;14.98;;;10.90;99.90;;;;;;5140756;27;20042;-66
2024/02/10 08:42:12;;;;;;;22.42;13.93;;;10.90;99.90;;;;;;5122434;27;20034;-65
2024/02/10 08:44:38;;;;;;;22.17;14.43;;;10.90;99.90;;;;;;5139652;27;20034;-65
2024/02/10 08:47:05;;;;;;;19.70;14.90;;;11.00;99.90;;;;;;5141927;27;20095;-65
2024/02/10 08:49:35;;;;;;;23.48;13.90;;;11.00;99.90;;;;;;5140273;27;20123;-66
2024/02/10 08:52:06;;;;;;;23.02;14.68;;;10.90;99.90;;;;;;5140919;27;20493;-65
2024/02/10 08:54:32;;;;;;;21.08;14.40;;;11.00;99.90;;;;;;5119197;27;20562;-64
2024/02/10 08:57:00;;;;;;;19.73;12.38;;;11.00;99.90;;;;;;5141204;27;20043;-65
2024/02/10 08:59:31;;;;;;;20.35;13.60;;;10.90;99.90;;;;;;5134054;27;20043;-65
2024/02/10 09:02:04;;;;;;;21.30;13.57;;;11.00;99.90;;;;;;5136080;27;20038;-64
2024/02/10 09:04:30;;;;;;;18.30;13.60;;;11.00;99.90;;;;;;5121067;27;20117;-65
2024/02/10 09:07:00;;;;;;;20.50;12.80;;;10.80;99.90;;;;;;5120812;27;20398;-64
2024/02/10 09:09:27;;;;;;;18.33;13.68;;;10.90;99.90;;;;;;5140414;27;20095;-65
2024/02/10 09:11:53;;;;;;;25.63;13.57;;;10.90;99.90;;;;;;5139537;27;20070;-65
2024/02/10 09:14:19;;;;;;;19.65;13.65;;;10.90;99.90;;;;;;5140307;27;20038;-65
2024/02/10 09:16:45;;;;;;;19.35;13.02;;;10.90;99.90;;;;;;5140181;27;20099;-65
2024/02/10 09:19:16;;;;;;;18.33;12.88;;;11.00;99.90;;;;;;5139094;27;20601;-65
2024/02/10 09:21:44;;;;;;;18.88;12.48;;;10.90;99.90;;;;;;5138949;27;20038;-65
2024/02/10 09:24:13;;;;;;;20.13;13.25;;;11.00;99.90;;;;;;5129943;27;20048;-65
2024/02/10 09:26:43;;;;;;;19.83;12.25;;;11.10;99.90;;;;;;5137762;27;20034;-65
2024/02/10 09:29:09;;;;;;;16.25;12.30;;;11.10;99.90;;;;;;5116485;27;20096;-66
2024/02/10 09:31:34;;;;;;;18.50;12.23;;;11.10;99.90;;;;;;5131976;27;20129;-66
2024/02/10 09:34:04;;;;;;;17.35;11.85;;;11.30;99.90;;;;;;5133591;27;20628;-65
2024/02/10 09:36:32;;;;;;;15.98;11.27;;;11.30;99.90;;;;;;5115460;27;20228;-65
2024/02/10 09:38:58;;;;;;;15.57;12.50;;;11.30;99.90;;;;;;5137890;27;20102;-65
2024/02/10 09:41:24;;;;;;;17.42;11.15;;;11.30;99.90;;;;;;5134215;27;20038;-66
2024/02/10 09:43:50;;;;;;;14.93;10.32;;;11.40;99.90;;;;;;5134573;27;20890;-65
2024/02/10 09:46:16;;;;;;;15.23;10.98;;;11.40;99.90;;;;;;5119289;27;20250;-65
2024/02/10 09:48:47;;;;;;;16.98;10.32;;;11.40;99.90;;;;;;5133758;27;20522;-65
2024/02/10 09:51:13;;;;;;;15.48;11.07;;;11.30;99.90;;;;;;5133149;27;20046;-65
2024/02/10 09:53:43;;;;;;;13.40;9.98;;;11.30;99.90;;;;;;5135518;27;20119;-65
2024/02/10 09:56:10;;;;;;;14.23;9.35;;;11.40;99.90;;;;;;5133852;27;20110;-65
2024/02/10 09:58:52;;;;;;;17.50;10.98;;;11.40;99.90;;;;;;5117759;27;20384;-65
2024/02/10 10:01:18;;;;;;;13.38;10.32;;;11.50;99.90;;;;;;5139025;27;20066;-64
2024/02/10 10:03:44;;;;;;;11.45;8.88;;;11.50;99.90;;;;;;5128685;27;20130;-65
2024/02/10 10:06:10;;;;;;;12.93;9.88;;;11.50;99.90;;;;;;5116386;27;20620;-66
2024/02/10 10:08:38;;;;;;;12.85;9.52;;;11.50;99.90;;;;;;5117894;27;20035;-65
2024/02/10 10:11:10;;;;;;;14.02;9.85;;;11.70;99.90;;;;;;5129008;27;20542;-65
2024/02/10 10:13:40;;;;;;;13.27;10.10;;;11.70;99.90;;;;;;5130083;27;20042;-65
2024/02/10 10:16:09;;;;;;;10.65;8.23;;;11.70;99.90;;;;;;5125991;27;20784;-65
2024/02/10 10:18:36;;;;;;;13.55;9.18;;;11.70;99.90;;;;;;5103781;27;20157;-64
2024/02/10 10:21:06;;;;;;;13.07;10.07;;;11.80;99.90;;;;;;5122512;27;20038;-64
2024/02/10 10:23:36;;;;;;;12.40;8.55;;;11.80;99.90;;;;;;5125387;27;20035;-65
2024/02/10 10:26:03;;;;;;;11.02;7.88;;;11.80;99.90;;;;;;5123165;27;20470;-65
2024/02/10 10:28:30;;;;;;;11.90;8.32;;;11.90;99.90;;;;;;5125567;27;20043;-64
2024/02/10 10:30:58;;;;;;;12.60;8.85;;;11.80;99.90;;;;;;5127380;27;20282;-65
2024/02/10 10:33:25;;;;;;;13.15;8.82;;;11.80;99.90;;;;;;5127675;27;20038;-66
2024/02/10 10:35:54;;;;;;;12.02;8.13;;;11.80;99.90;;;;;;5127095;27;20219;-65
2024/02/10 10:38:24;;;;;;;11.23;8.43;;;11.80;99.90;;;;;;5113895;27;20518;-65
2024/02/10 10:40:51;;;;;;;11.35;8.40;;;11.90;99.90;;;;;;5130046;27;20074;-66
2024/02/10 10:43:20;;;;;;;12.40;8.20;;;11.90;99.90;;;;;;5131682;27;21762;-65
2024/02/10 10:45:46;;;;;;;;;;;11.80;99.90;;;;;;5133070;27;20046;-66
2024/02/10 10:48:13;;;;;;;8.73;7.22;;;11.90;99.90;;;;;;5131697;27;19918;-65
2024/02/10 10:50:39;;;;;;;10.77;7.90;;;11.90;99.90;;;;;;5132089;27;20066;-65
2024/02/10 10:53:09;;;;;;;10.68;8.30;;;11.90;99.90;;;;;;5132656;27;20593;-66
2024/02/10 10:55:53;;;;;;;11.48;7.85;;;12.00;99.90;;;;;;5130897;27;20166;-66
2024/02/10 10:58:32;;;;;;;12.82;7.55;;;11.90;99.90;;;;;;5130024;27;20155;-65
2024/02/10 11:00:59;;;;;;;14.60;7.93;;;12.00;99.90;;;;;;5134007;27;20066;-65
2024/02/10 11:03:26;;;;;;;10.57;7.85;;;12.00;99.90;;;;;;5127949;27;20047;-65
2024/02/10 11:05:52;;;;;;;13.00;8.55;;;12.00;99.90;;;;;;5111333;27;20586;-64
2024/02/10 11:08:28;;;;;;;15.95;7.75;;;12.20;99.90;;;;;;5129655;27;20049;-65
2024/02/10 11:11:02;;;;;;;11.88;8.43;;;12.20;99.90;;;;;;5135266;27;20069;-64
2024/02/10 11:13:30;;;;;;;11.48;7.68;;;12.30;99.90;;;;;;5114658;27;20544;-66
2024/02/10 11:16:10;;;;;;;9.73;7.55;;;12.30;99.90;;;;;;5116579;27;20109;-66
2024/02/10 11:18:37;;;;;;;9.73;7.38;;;12.40;99.90;;;;;;5137787;27;20526;-66
2024/02/10 11:21:25;;;;;;;8.18;6.55;;;12.40;99.90;;;;;;5134842;27;20042;-65
2024/02/10 11:24:00;;;;;;;11.63;7.38;;;12.40;99.90;;;;;;5130385;27;20505;-64
2024/02/10 11:26:27;;;;;;;11.35;7.10;;;12.50;99.90;;;;;;5130654;27;20142;-65
2024/02/10 11:29:18;;;;;;;13.05;7.38;;;12.60;99.90;;;;;;5111552;27;20038;-64
2024/02/10 11:31:44;;;;;;;8.77;6.70;;;12.70;99.90;;;;;;5132010;27;20050;-64
2024/02/10 11:34:17;;;;;;;9.07;7.25;;;12.70;99.90;;;;;;5129503;27;20039;-64
2024/02/10 11:36:51;;;;;;;10.00;6.82;;;12.80;99.90;;;;;;5131578;27;20038;-65
2024/02/10 11:39:24;;;;;;;8.27;6.30;;;12.80;99.90;;;;;;5129830;27;20082;-64
2024/02/10 11:41:58;;;;;;;7.82;6.60;;;12.80;99.90;;;;;;5129699;27;20039;-65
2024/02/10 11:44:28;;;;;;;9.55;6.15;;;12.90;99.90;;;;;;5131855;27;20172;-65
2024/02/10 11:46:59;;;;;;;9.45;6.50;;;12.90;99.90;;;;;;5130969;27;20077;-65
2024/02/10 11:49:26;;;;;;;7.38;5.55;;;12.80;99.90;;;;;;5129657;27;20047;-64
2024/02/10 11:51:56;;;;;;;10.20;6.82;;;12.80;99.90;;;;;;5129776;27;20046;-63
2024/02/10 11:54:27;;;;;;;9.43;6.50;;;12.90;99.90;;;;;;5130674;27;20034;-65
2024/02/10 11:56:53;;;;;;;8.07;6.10;;;12.90;99.90;;;;;;5130436;27;20046;-65
2024/02/10 11:59:19;;;;;;;10.90;6.10;;;12.90;99.90;;;;;;5128955;27;20051;-65
2024/02/10 12:01:46;;;;;;;8.65;5.72;;;13.00;99.90;;;;;;5130879;27;20039;-64
2024/02/10 12:04:18;;;;;;;6.47;5.57;;;13.00;99.90;;;;;;5132765;27;20103;-64
2024/02/10 12:06:48;;;;;;;9.48;6.10;;;13.10;99.90;;;;;;5129838;27;20042;-65
2024/02/10 12:09:15;;;;;;;8.30;5.63;;;13.10;99.90;;;;;;5135001;27;20185;-65
2024/02/10 12:11:40;;;;;;;8.65;5.47;;;13.10;99.90;;;;;;5130671;27;20067;-65
2024/02/10 12:14:13;;;;;;;5.60;4.88;;;13.20;99.90;;;;;;5128851;27;20193;-64
2024/02/10 12:16:46;;;;;;;7.90;5.50;;;13.20;99.90;;;;;;5113744;27;20043;-65
2024/02/10 12:19:13;;;;;;;10.95;5.32;;;13.10;99.90;;;;;;5129508;27;20488;-65
2024/02/10 12:21:41;;;;;;;7.80;4.93;;;13.10;99.90;;;;;;5130619;27;20487;-65
2024/02/10 12:24:11;;;;;;;7.32;5.10;;;13.10;99.90;;;;;;5130662;27;20427;-65
2024/02/10 12:26:37;;;;;;;7.85;5.25;;;13.00;99.90;;;;;;5130752;27;20711;-64
2024/02/10 12:29:04;;;;;;;6.88;4.97;;;13.00;99.90;;;;;;5139163;27;20065;-65
2024/02/10 12:31:31;;;;;;;9.18;4.38;;;13.00;99.90;;;;;;5140574;27;20034;-65
2024/02/10 12:33:57;;;;;;;7.60;4.90;;;13.10;99.90;;;;;;5138807;27;20472;-64
2024/02/10 12:36:24;;;;;;;6.18;4.80;;;13.10;99.90;;;;;;5138150;27;20119;-64
2024/02/10 12:38:55;;;;;;;8.65;5.13;;;13.00;99.90;;;;;;5139704;27;20591;-65
2024/02/10 12:41:22;;;;;;;6.63;4.68;;;13.00;99.90;;;;;;5140074;27;20504;-64
2024/02/10 12:43:48;;;;;;;8.38;4.55;;;13.00;99.90;;;;;;5117798;27;20095;-64